sensor_id;sensor_type;location;lat;lon;timestamp;P1;durP1;ratioP1;P2;durP2;ratioP2
75038;SDS011;63609;49.992;14.512;2023-06-10T00:03:31;18.50;;;10.70;;
75038;SDS011;63609;49.992;14.512;2023-06-10T00:05:59;19.73;;;10.75;;
75038;SDS011;63609;49.992;14.512;2023-06-10T00:08:26;19.88;;;11.48;;
75038;SDS011;63609;49.992;14.512;2023-06-10T00:10:53;19.10;;;10.52;;
75038;SDS011;63609;49.992;14.512;2023-06-10T00:13:19;18.88;;;10.70;;
75038;SDS011;63609;49.992;14.512;2023-06-10T00:15:46;18.33;;;11.68;;
75038;SDS011;63609;49.992;14.512;2023-06-10T00:18:13;18.23;;;11.32;;
75038;SDS011;63609;49.992;14.512;2023-06-10T00:20:40;16.70;;;10.00;;
75038;SDS011;63609;49.992;14.512;2023-06-10T00:23:08;17.27;;;10.73;;
75038;SDS011;63609;49.992;14.512;2023-06-10T00:25:36;16.17;;;9.35;;
75038;SDS011;63609;49.992;14.512;2023-06-10T00:28:02;17.13;;;9.38;;
75038;SDS011;63609;49.992;14.512;2023-06-10T00:30:29;15.13;;;8.00;;
75038;SDS011;63609;49.992;14.512;2023-06-10T00:32:56;15.05;;;7.18;;
75038;SDS011;63609;49.992;14.512;2023-06-10T00:35:23;100.75;;;9.40;;
75038;SDS011;63609;49.992;14.512;2023-06-10T00:37:51;97.47;;;8.77;;
75038;SDS011;63609;49.992;14.512;2023-06-10T00:40:18;57.72;;;8.50;;
75038;SDS011;63609;49.992;14.512;2023-06-10T00:42:45;59.35;;;9.98;;
75038;SDS011;63609;49.992;14.512;2023-06-10T00:45:12;17.10;;;9.68;;
75038;SDS011;63609;49.992;14.512;2023-06-10T00:47:39;20.95;;;10.27;;
75038;SDS011;63609;49.992;14.512;2023-06-10T00:50:06;18.75;;;10.02;;
75038;SDS011;63609;49.992;14.512;2023-06-10T00:52:33;19.17;;;9.75;;
75038;SDS011;63609;49.992;14.512;2023-06-10T00:55:01;17.17;;;10.45;;
75038;SDS011;63609;49.992;14.512;2023-06-10T00:57:28;21.30;;;10.73;;
75038;SDS011;63609;49.992;14.512;2023-06-10T00:59:56;17.17;;;10.15;;
75038;SDS011;63609;49.992;14.512;2023-06-10T01:02:26;23.02;;;11.90;;
75038;SDS011;63609;49.992;14.512;2023-06-10T01:04:56;21.20;;;11.35;;
75038;SDS011;63609;49.992;14.512;2023-06-10T01:07:25;19.67;;;11.23;;
75038;SDS011;63609;49.992;14.512;2023-06-10T01:10:11;19.08;;;10.85;;
75038;SDS011;63609;49.992;14.512;2023-06-10T01:12:55;18.27;;;11.43;;
75038;SDS011;63609;49.992;14.512;2023-06-10T01:15:26;19.17;;;10.88;;
75038;SDS011;63609;49.992;14.512;2023-06-10T01:17:57;19.73;;;10.73;;
75038;SDS011;63609;49.992;14.512;2023-06-10T01:20:32;22.52;;;11.15;;
75038;SDS011;63609;49.992;14.512;2023-06-10T01:23:00;19.30;;;10.55;;
75038;SDS011;63609;49.992;14.512;2023-06-10T01:25:29;17.63;;;9.65;;
75038;SDS011;63609;49.992;14.512;2023-06-10T01:28:02;21.13;;;11.40;;
75038;SDS011;63609;49.992;14.512;2023-06-10T01:30:32;17.52;;;9.52;;
75038;SDS011;63609;49.992;14.512;2023-06-10T01:33:17;17.85;;;10.55;;
75038;SDS011;63609;49.992;14.512;2023-06-10T01:35:55;13.95;;;8.02;;
75038;SDS011;63609;49.992;14.512;2023-06-10T01:38:25;15.50;;;8.50;;
75038;SDS011;63609;49.992;14.512;2023-06-10T01:40:54;11.60;;;7.43;;
75038;SDS011;63609;49.992;14.512;2023-06-10T01:43:23;20.85;;;9.80;;
75038;SDS011;63609;49.992;14.512;2023-06-10T01:45:50;13.77;;;7.93;;
75038;SDS011;63609;49.992;14.512;2023-06-10T01:48:18;12.93;;;8.10;;
75038;SDS011;63609;49.992;14.512;2023-06-10T01:50:47;11.38;;;7.32;;
75038;SDS011;63609;49.992;14.512;2023-06-10T01:53:14;11.88;;;7.50;;
75038;SDS011;63609;49.992;14.512;2023-06-10T01:55:40;15.85;;;7.60;;
75038;SDS011;63609;49.992;14.512;2023-06-10T01:58:07;13.02;;;7.32;;
75038;SDS011;63609;49.992;14.512;2023-06-10T02:00:34;15.43;;;8.88;;
75038;SDS011;63609;49.992;14.512;2023-06-10T02:03:01;13.35;;;7.65;;
75038;SDS011;63609;49.992;14.512;2023-06-10T02:05:28;15.85;;;9.00;;
75038;SDS011;63609;49.992;14.512;2023-06-10T02:07:55;15.27;;;8.52;;
75038;SDS011;63609;49.992;14.512;2023-06-10T02:10:22;15.88;;;9.02;;
75038;SDS011;63609;49.992;14.512;2023-06-10T02:12:49;17.52;;;9.85;;
75038;SDS011;63609;49.992;14.512;2023-06-10T02:15:16;17.58;;;9.75;;
75038;SDS011;63609;49.992;14.512;2023-06-10T02:17:46;17.58;;;9.63;;
75038;SDS011;63609;49.992;14.512;2023-06-10T02:20:13;18.15;;;8.85;;
75038;SDS011;63609;49.992;14.512;2023-06-10T02:22:40;14.57;;;8.48;;
75038;SDS011;63609;49.992;14.512;2023-06-10T02:25:07;14.98;;;8.25;;
75038;SDS011;63609;49.992;14.512;2023-06-10T02:27:35;17.33;;;9.30;;
75038;SDS011;63609;49.992;14.512;2023-06-10T02:30:02;19.25;;;9.45;;
75038;SDS011;63609;49.992;14.512;2023-06-10T02:32:33;14.35;;;8.35;;
75038;SDS011;63609;49.992;14.512;2023-06-10T02:35:01;16.65;;;8.68;;
75038;SDS011;63609;49.992;14.512;2023-06-10T02:37:29;13.55;;;7.63;;
75038;SDS011;63609;49.992;14.512;2023-06-10T02:39:56;13.95;;;7.82;;
75038;SDS011;63609;49.992;14.512;2023-06-10T02:42:25;15.65;;;8.55;;
75038;SDS011;63609;49.992;14.512;2023-06-10T02:44:52;14.82;;;8.82;;
75038;SDS011;63609;49.992;14.512;2023-06-10T02:47:30;15.07;;;9.02;;
75038;SDS011;63609;49.992;14.512;2023-06-10T02:49:57;15.13;;;8.48;;
75038;SDS011;63609;49.992;14.512;2023-06-10T02:52:24;16.83;;;9.98;;
75038;SDS011;63609;49.992;14.512;2023-06-10T02:54:51;17.63;;;9.18;;
75038;SDS011;63609;49.992;14.512;2023-06-10T02:57:18;16.40;;;8.40;;
75038;SDS011;63609;49.992;14.512;2023-06-10T02:59:45;15.07;;;8.80;;
75038;SDS011;63609;49.992;14.512;2023-06-10T03:02:13;18.50;;;9.10;;
75038;SDS011;63609;49.992;14.512;2023-06-10T03:04:47;14.38;;;8.32;;
75038;SDS011;63609;49.992;14.512;2023-06-10T03:07:16;16.90;;;8.18;;
75038;SDS011;63609;49.992;14.512;2023-06-10T03:09:45;16.25;;;9.23;;
75038;SDS011;63609;49.992;14.512;2023-06-10T03:12:14;18.00;;;8.77;;
75038;SDS011;63609;49.992;14.512;2023-06-10T03:14:45;15.15;;;8.52;;
75038;SDS011;63609;49.992;14.512;2023-06-10T03:17:12;17.17;;;9.07;;
75038;SDS011;63609;49.992;14.512;2023-06-10T03:19:41;13.98;;;8.15;;
75038;SDS011;63609;49.992;14.512;2023-06-10T03:22:12;11.25;;;6.68;;
75038;SDS011;63609;49.992;14.512;2023-06-10T03:24:53;12.57;;;7.55;;
75038;SDS011;63609;49.992;14.512;2023-06-10T03:27:22;11.45;;;7.28;;
75038;SDS011;63609;49.992;14.512;2023-06-10T03:29:53;12.48;;;7.20;;
75038;SDS011;63609;49.992;14.512;2023-06-10T03:32:21;19.02;;;9.48;;
75038;SDS011;63609;49.992;14.512;2023-06-10T03:34:48;17.45;;;8.63;;
75038;SDS011;63609;49.992;14.512;2023-06-10T03:37:16;16.38;;;8.73;;
75038;SDS011;63609;49.992;14.512;2023-06-10T03:39:46;16.35;;;8.80;;
75038;SDS011;63609;49.992;14.512;2023-06-10T03:42:13;17.45;;;8.93;;
75038;SDS011;63609;49.992;14.512;2023-06-10T03:44:40;16.77;;;9.48;;
75038;SDS011;63609;49.992;14.512;2023-06-10T03:47:06;15.07;;;10.23;;
75038;SDS011;63609;49.992;14.512;2023-06-10T03:49:34;18.80;;;10.25;;
75038;SDS011;63609;49.992;14.512;2023-06-10T03:52:03;19.17;;;9.07;;
75038;SDS011;63609;49.992;14.512;2023-06-10T03:54:31;14.20;;;8.65;;
75038;SDS011;63609;49.992;14.512;2023-06-10T03:56:58;11.73;;;7.90;;
75038;SDS011;63609;49.992;14.512;2023-06-10T03:59:25;20.98;;;9.55;;
75038;SDS011;63609;49.992;14.512;2023-06-10T04:01:52;25.67;;;10.70;;
75038;SDS011;63609;49.992;14.512;2023-06-10T04:04:19;52.08;;;11.85;;
75038;SDS011;63609;49.992;14.512;2023-06-10T04:06:46;44.80;;;13.05;;
75038;SDS011;63609;49.992;14.512;2023-06-10T04:09:14;24.83;;;12.15;;
75038;SDS011;63609;49.992;14.512;2023-06-10T04:11:43;19.23;;;10.70;;
75038;SDS011;63609;49.992;14.512;2023-06-10T04:14:10;17.15;;;9.13;;
75038;SDS011;63609;49.992;14.512;2023-06-10T04:16:38;17.20;;;10.07;;
75038;SDS011;63609;49.992;14.512;2023-06-10T04:19:05;16.55;;;9.65;;
75038;SDS011;63609;49.992;14.512;2023-06-10T04:21:32;16.73;;;9.38;;
75038;SDS011;63609;49.992;14.512;2023-06-10T04:23:59;18.95;;;11.55;;
75038;SDS011;63609;49.992;14.512;2023-06-10T04:26:28;18.73;;;9.50;;
75038;SDS011;63609;49.992;14.512;2023-06-10T04:28:55;15.95;;;9.15;;
75038;SDS011;63609;49.992;14.512;2023-06-10T04:31:22;15.70;;;9.07;;
75038;SDS011;63609;49.992;14.512;2023-06-10T04:33:50;16.50;;;10.18;;
75038;SDS011;63609;49.992;14.512;2023-06-10T04:36:17;16.27;;;10.20;;
75038;SDS011;63609;49.992;14.512;2023-06-10T04:38:44;18.80;;;9.82;;
75038;SDS011;63609;49.992;14.512;2023-06-10T04:41:12;16.45;;;10.18;;
75038;SDS011;63609;49.992;14.512;2023-06-10T04:43:39;16.73;;;10.85;;
75038;SDS011;63609;49.992;14.512;2023-06-10T04:46:07;19.85;;;10.23;;
75038;SDS011;63609;49.992;14.512;2023-06-10T04:48:35;20.65;;;11.27;;
75038;SDS011;63609;49.992;14.512;2023-06-10T04:51:03;18.23;;;10.70;;
75038;SDS011;63609;49.992;14.512;2023-06-10T04:53:32;17.05;;;9.82;;
75038;SDS011;63609;49.992;14.512;2023-06-10T04:55:59;18.25;;;10.70;;
75038;SDS011;63609;49.992;14.512;2023-06-10T04:58:26;20.52;;;10.40;;
75038;SDS011;63609;49.992;14.512;2023-06-10T05:00:52;18.75;;;10.45;;
75038;SDS011;63609;49.992;14.512;2023-06-10T05:03:19;18.15;;;10.35;;
75038;SDS011;63609;49.992;14.512;2023-06-10T05:05:46;16.80;;;10.60;;
75038;SDS011;63609;49.992;14.512;2023-06-10T05:08:13;16.13;;;10.70;;
75038;SDS011;63609;49.992;14.512;2023-06-10T05:10:41;15.80;;;10.40;;
75038;SDS011;63609;49.992;14.512;2023-06-10T05:13:08;16.15;;;9.65;;
75038;SDS011;63609;49.992;14.512;2023-06-10T05:15:35;17.33;;;10.80;;
75038;SDS011;63609;49.992;14.512;2023-06-10T05:18:03;16.85;;;10.70;;
75038;SDS011;63609;49.992;14.512;2023-06-10T05:20:30;15.68;;;10.20;;
75038;SDS011;63609;49.992;14.512;2023-06-10T05:23:00;17.88;;;10.57;;
75038;SDS011;63609;49.992;14.512;2023-06-10T05:25:28;15.48;;;10.00;;
75038;SDS011;63609;49.992;14.512;2023-06-10T05:27:57;14.63;;;9.73;;
75038;SDS011;63609;49.992;14.512;2023-06-10T05:30:24;14.18;;;9.50;;
75038;SDS011;63609;49.992;14.512;2023-06-10T05:32:52;17.25;;;10.77;;
75038;SDS011;63609;49.992;14.512;2023-06-10T05:35:22;18.30;;;11.60;;
75038;SDS011;63609;49.992;14.512;2023-06-10T05:37:49;17.27;;;10.27;;
75038;SDS011;63609;49.992;14.512;2023-06-10T05:40:16;11.43;;;8.82;;
75038;SDS011;63609;49.992;14.512;2023-06-10T05:42:43;15.00;;;9.10;;
75038;SDS011;63609;49.992;14.512;2023-06-10T05:45:10;14.40;;;9.20;;
75038;SDS011;63609;49.992;14.512;2023-06-10T05:47:40;14.27;;;9.45;;
75038;SDS011;63609;49.992;14.512;2023-06-10T05:50:07;11.43;;;8.35;;
75038;SDS011;63609;49.992;14.512;2023-06-10T05:52:36;14.82;;;8.18;;
75038;SDS011;63609;49.992;14.512;2023-06-10T05:55:03;13.55;;;9.18;;
75038;SDS011;63609;49.992;14.512;2023-06-10T05:57:30;14.23;;;8.18;;
75038;SDS011;63609;49.992;14.512;2023-06-10T06:00:00;19.42;;;9.35;;
75038;SDS011;63609;49.992;14.512;2023-06-10T06:02:38;13.25;;;9.25;;
75038;SDS011;63609;49.992;14.512;2023-06-10T06:05:05;14.00;;;8.60;;
75038;SDS011;63609;49.992;14.512;2023-06-10T06:07:33;13.90;;;9.32;;
75038;SDS011;63609;49.992;14.512;2023-06-10T06:10:01;12.68;;;8.43;;
75038;SDS011;63609;49.992;14.512;2023-06-10T06:12:27;13.30;;;8.63;;
75038;SDS011;63609;49.992;14.512;2023-06-10T06:14:54;13.27;;;8.18;;
75038;SDS011;63609;49.992;14.512;2023-06-10T06:17:21;13.10;;;9.35;;
75038;SDS011;63609;49.992;14.512;2023-06-10T06:19:48;11.60;;;8.23;;
75038;SDS011;63609;49.992;14.512;2023-06-10T06:22:15;13.18;;;8.40;;
75038;SDS011;63609;49.992;14.512;2023-06-10T06:24:47;11.63;;;8.13;;
75038;SDS011;63609;49.992;14.512;2023-06-10T06:27:14;14.07;;;9.35;;
75038;SDS011;63609;49.992;14.512;2023-06-10T06:29:41;14.68;;;7.85;;
75038;SDS011;63609;49.992;14.512;2023-06-10T06:32:09;13.45;;;9.35;;
75038;SDS011;63609;49.992;14.512;2023-06-10T06:34:36;12.93;;;8.43;;
75038;SDS011;63609;49.992;14.512;2023-06-10T06:37:03;12.82;;;9.07;;
75038;SDS011;63609;49.992;14.512;2023-06-10T06:39:33;10.77;;;7.95;;
75038;SDS011;63609;49.992;14.512;2023-06-10T06:42:02;13.18;;;8.65;;
75038;SDS011;63609;49.992;14.512;2023-06-10T06:44:53;11.63;;;8.45;;
75038;SDS011;63609;49.992;14.512;2023-06-10T06:47:20;11.13;;;8.32;;
75038;SDS011;63609;49.992;14.512;2023-06-10T06:49:47;12.20;;;7.70;;
75038;SDS011;63609;49.992;14.512;2023-06-10T06:52:15;10.43;;;7.25;;
75038;SDS011;63609;49.992;14.512;2023-06-10T06:54:42;9.68;;;7.22;;
75038;SDS011;63609;49.992;14.512;2023-06-10T06:57:08;10.13;;;7.20;;
75038;SDS011;63609;49.992;14.512;2023-06-10T06:59:35;10.27;;;7.63;;
75038;SDS011;63609;49.992;14.512;2023-06-10T07:02:03;11.45;;;6.65;;
75038;SDS011;63609;49.992;14.512;2023-06-10T07:04:30;9.43;;;6.82;;
75038;SDS011;63609;49.992;14.512;2023-06-10T07:06:57;9.70;;;6.65;;
75038;SDS011;63609;49.992;14.512;2023-06-10T07:09:24;9.35;;;6.53;;
75038;SDS011;63609;49.992;14.512;2023-06-10T07:11:51;8.93;;;6.65;;
75038;SDS011;63609;49.992;14.512;2023-06-10T07:14:18;12.30;;;7.40;;
75038;SDS011;63609;49.992;14.512;2023-06-10T07:16:45;8.32;;;6.07;;
75038;SDS011;63609;49.992;14.512;2023-06-10T07:19:14;9.23;;;6.10;;
75038;SDS011;63609;49.992;14.512;2023-06-10T07:21:41;9.98;;;7.13;;
75038;SDS011;63609;49.992;14.512;2023-06-10T07:24:08;11.60;;;7.70;;
75038;SDS011;63609;49.992;14.512;2023-06-10T07:26:36;11.32;;;7.50;;
75038;SDS011;63609;49.992;14.512;2023-06-10T07:29:02;11.00;;;7.70;;
75038;SDS011;63609;49.992;14.512;2023-06-10T07:31:29;12.80;;;7.28;;
75038;SDS011;63609;49.992;14.512;2023-06-10T07:33:58;9.95;;;6.70;;
75038;SDS011;63609;49.992;14.512;2023-06-10T07:36:25;10.38;;;7.15;;
75038;SDS011;63609;49.992;14.512;2023-06-10T07:38:54;9.75;;;7.03;;
75038;SDS011;63609;49.992;14.512;2023-06-10T07:41:25;11.02;;;6.97;;
75038;SDS011;63609;49.992;14.512;2023-06-10T07:43:54;10.15;;;7.18;;
75038;SDS011;63609;49.992;14.512;2023-06-10T07:46:24;11.35;;;7.32;;
75038;SDS011;63609;49.992;14.512;2023-06-10T07:48:51;10.68;;;6.78;;
75038;SDS011;63609;49.992;14.512;2023-06-10T07:51:18;9.20;;;6.25;;
75038;SDS011;63609;49.992;14.512;2023-06-10T07:53:45;11.75;;;7.18;;
75038;SDS011;63609;49.992;14.512;2023-06-10T07:56:12;10.40;;;7.63;;
75038;SDS011;63609;49.992;14.512;2023-06-10T07:58:39;9.65;;;7.45;;
75038;SDS011;63609;49.992;14.512;2023-06-10T08:01:06;13.10;;;7.35;;
75038;SDS011;63609;49.992;14.512;2023-06-10T08:03:33;13.07;;;7.35;;
75038;SDS011;63609;49.992;14.512;2023-06-10T08:06:01;10.73;;;7.30;;
75038;SDS011;63609;49.992;14.512;2023-06-10T08:08:27;11.40;;;7.25;;
75038;SDS011;63609;49.992;14.512;2023-06-10T08:10:54;8.55;;;6.60;;
75038;SDS011;63609;49.992;14.512;2023-06-10T08:13:21;10.57;;;7.20;;
75038;SDS011;63609;49.992;14.512;2023-06-10T08:15:48;9.35;;;7.18;;
75038;SDS011;63609;49.992;14.512;2023-06-10T08:18:17;10.48;;;6.63;;
75038;SDS011;63609;49.992;14.512;2023-06-10T08:20:44;9.65;;;6.88;;
75038;SDS011;63609;49.992;14.512;2023-06-10T08:23:11;10.45;;;7.03;;
75038;SDS011;63609;49.992;14.512;2023-06-10T08:25:37;11.77;;;7.57;;
75038;SDS011;63609;49.992;14.512;2023-06-10T08:28:05;9.15;;;6.47;;
75038;SDS011;63609;49.992;14.512;2023-06-10T08:30:32;9.95;;;7.63;;
75038;SDS011;63609;49.992;14.512;2023-06-10T08:32:59;9.23;;;7.43;;
75038;SDS011;63609;49.992;14.512;2023-06-10T08:35:26;11.35;;;8.02;;
75038;SDS011;63609;49.992;14.512;2023-06-10T08:37:53;9.15;;;6.85;;
75038;SDS011;63609;49.992;14.512;2023-06-10T08:40:20;12.13;;;7.65;;
75038;SDS011;63609;49.992;14.512;2023-06-10T08:42:49;13.25;;;7.78;;
75038;SDS011;63609;49.992;14.512;2023-06-10T08:45:32;9.73;;;6.97;;
75038;SDS011;63609;49.992;14.512;2023-06-10T08:48:02;10.50;;;7.80;;
75038;SDS011;63609;49.992;14.512;2023-06-10T08:53:05;22.80;;;8.65;;
75038;SDS011;63609;49.992;14.512;2023-06-10T08:55:34;11.32;;;7.93;;
